createdAt,value
2023-02-12T00:01:38.422Z,99241.41
2023-02-12T00:05:42.109Z,99240.81
2023-02-12T00:09:46.272Z,99231.69
2023-02-12T00:13:49.077Z,99227.44
2023-02-12T00:17:51.686Z,99220.38
2023-02-12T00:21:54.319Z,99219.41
2023-02-12T00:25:58.366Z,99226.34
2023-02-12T00:30:01.028Z,99224.91
2023-02-12T00:34:03.688Z,99230.59
2023-02-12T00:38:06.349Z,99232.09
2023-02-12T00:42:10.322Z,99237.47
2023-02-12T00:46:13.034Z,99233.44
2023-02-12T00:50:15.786Z,99238.19
2023-02-12T00:54:18.605Z,99241.22
2023-02-12T00:58:22.866Z,99251.91
2023-02-12T01:02:25.717Z,99242.34
2023-02-12T01:06:28.408Z,99243.31
2023-02-12T01:10:31.268Z,99250.75
2023-02-12T01:14:35.569Z,99244.78
2023-02-12T01:18:39.058Z,99263.84
2023-02-12T01:22:41.814Z,99266.41
2023-02-12T01:26:44.433Z,99265.69
2023-02-12T01:30:48.520Z,99264.84
2023-02-12T01:34:51.466Z,99271.75
2023-02-12T01:38:54.121Z,99266.28
2023-02-12T01:42:56.745Z,99252.69
2023-02-12T01:47:02.321Z,99257.03
2023-02-12T01:51:06.000Z,99261.94
2023-02-12T01:55:11.144Z,99262.78
2023-02-12T01:59:14.461Z,99263.00
2023-02-12T02:03:18.513Z,99267.28
2023-02-12T02:07:21.164Z,99261.22
2023-02-12T02:11:42.050Z,99261.56
2023-02-12T02:15:50.419Z,99270.91
2023-02-12T02:20:34.411Z,99265.09
2023-02-12T02:25:00.793Z,99272.28
2023-02-12T02:29:21.546Z,99274.94
2023-02-12T02:33:38.463Z,99277.63
2023-02-12T02:37:45.127Z,99267.88
2023-02-12T02:41:56.495Z,99263.13
2023-02-12T02:46:04.368Z,99269.47
2023-02-12T02:50:12.713Z,99268.88
2023-02-12T02:54:20.872Z,99274.06
2023-02-12T02:58:27.587Z,99272.25
2023-02-12T03:02:33.646Z,99264.47
2023-02-12T03:06:45.152Z,99274.44
2023-02-12T03:10:50.742Z,99265.19
2023-02-12T03:14:58.319Z,99261.78
2023-02-12T03:19:07.069Z,99272.84
2023-02-12T03:23:13.965Z,99272.00
2023-02-12T03:27:19.035Z,99266.53
2023-02-12T03:31:31.775Z,99275.63
2023-02-12T03:35:42.849Z,99271.25
2023-02-12T03:39:54.297Z,99279.00
2023-02-12T03:44:05.455Z,99290.53
2023-02-12T03:48:14.763Z,99299.38
2023-02-12T03:52:17.379Z,99298.44
2023-02-12T03:56:26.516Z,99300.47
2023-02-12T04:00:29.325Z,99299.38
2023-02-12T04:04:32.747Z,99307.63
2023-02-12T04:08:35.384Z,99310.28
2023-02-12T04:12:47.843Z,99310.88
2023-02-12T04:16:55.628Z,99314.22
2023-02-12T04:21:08.006Z,99314.00
2023-02-12T04:25:21.612Z,99320.75
2023-02-12T04:29:33.226Z,99316.72
2023-02-12T04:33:41.076Z,99331.06
2023-02-12T04:37:46.439Z,99328.28
2023-02-12T04:41:49.292Z,99333.09
2023-02-12T04:45:53.575Z,99339.28
2023-02-12T04:49:56.389Z,99343.66
2023-02-12T04:53:58.944Z,99343.66
2023-02-12T04:58:01.651Z,99333.44
2023-02-12T05:02:05.639Z,99346.88
2023-02-12T05:06:10.029Z,99342.63
2023-02-12T05:10:12.782Z,99344.69
2023-02-12T05:14:15.428Z,99347.44
2023-02-12T05:18:19.337Z,99352.78
2023-02-12T05:22:22.080Z,99360.69
2023-02-12T05:26:24.751Z,99355.34
2023-02-12T05:30:27.323Z,99366.75
2023-02-12T05:34:31.381Z,99367.72
2023-02-12T05:38:34.030Z,99371.25
2023-02-12T05:42:36.628Z,99365.03
2023-02-12T05:46:40.041Z,99369.63
2023-02-12T05:50:44.007Z,99368.78
2023-02-12T05:54:46.589Z,99358.69
2023-02-12T05:58:53.027Z,99355.19
2023-02-12T06:02:55.677Z,99359.44
2023-02-12T06:07:01.733Z,99359.94
2023-02-12T06:11:06.129Z,99361.31
2023-02-12T06:15:09.557Z,99370.47
2023-02-12T06:19:12.249Z,99370.38
2023-02-12T06:23:16.206Z,99384.13
2023-02-12T06:27:18.878Z,99393.72
2023-02-12T06:31:24.512Z,99388.75
2023-02-12T06:35:27.198Z,99397.59
2023-02-12T06:39:31.138Z,99400.59
2023-02-12T06:43:33.728Z,99397.41
2023-02-12T06:47:36.337Z,99394.22
2023-02-12T06:51:41.225Z,99392.56
2023-02-12T06:55:45.172Z,99394.50
2023-02-12T06:59:47.805Z,99402.66
2023-02-12T07:03:52.038Z,99402.31
2023-02-12T07:07:54.695Z,99403.94
2023-02-12T07:11:59.104Z,99401.88
2023-02-12T07:16:04.814Z,99410.19
2023-02-12T07:20:08.916Z,99411.78
2023-02-12T07:24:12.995Z,99417.25
2023-02-12T07:28:17.032Z,99429.31
2023-02-12T07:32:19.666Z,99428.44
2023-02-12T07:36:22.333Z,99420.16
2023-02-12T07:40:24.908Z,99410.13
2023-02-12T07:44:29.328Z,99412.94
2023-02-12T07:48:31.915Z,99414.84
2023-02-12T07:52:34.558Z,99421.19
2023-02-12T07:56:39.059Z,99413.69
2023-02-12T08:00:42.964Z,99414.00
2023-02-12T08:04:45.576Z,99421.19
2023-02-12T08:08:48.537Z,99406.03
2023-02-12T08:12:51.145Z,99410.44
2023-02-12T08:16:55.208Z,99417.94
2023-02-12T08:21:02.944Z,99418.66
2023-02-12T08:25:05.924Z,99420.34
2023-02-12T08:29:10.257Z,99420.28
2023-02-12T08:33:14.153Z,99426.47
2023-02-12T08:37:16.751Z,99427.22
2023-02-12T08:41:21.740Z,99422.81
2023-02-12T08:45:24.385Z,99427.00
2023-02-12T08:49:30.635Z,99421.28
2023-02-12T08:53:33.400Z,99425.94
2023-02-12T08:57:36.079Z,99430.34
2023-02-12T09:01:41.677Z,99421.81
2023-02-12T09:05:45.724Z,99427.16
2023-02-12T09:09:48.407Z,99425.09
2023-02-12T09:13:51.446Z,99427.69
2023-02-12T09:17:54.123Z,99435.72
2023-02-12T09:21:58.309Z,99439.63
2023-02-12T09:26:01.184Z,99441.00
2023-02-12T09:30:03.970Z,99437.94
2023-02-12T09:34:07.858Z,99447.91
2023-02-12T09:38:11.845Z,99442.81
2023-02-12T09:42:38.956Z,99451.06
2023-02-12T09:46:48.817Z,99447.56
2023-02-12T09:50:54.895Z,99453.13
2023-02-12T09:54:59.948Z,99451.50
2023-02-12T09:59:06.655Z,99458.19
2023-02-12T10:03:13.628Z,99460.59
2023-02-12T10:07:30.418Z,99454.25
2023-02-12T10:11:56.443Z,99453.09
2023-02-12T10:16:11.032Z,99458.81
2023-02-12T10:20:29.784Z,99456.53
2023-02-12T10:24:57.955Z,99460.25
2023-02-12T10:29:12.180Z,99459.00
2023-02-12T10:33:18.594Z,99459.19
2023-02-12T10:37:29.377Z,99454.06
2023-02-12T10:41:34.148Z,99452.00
2023-02-12T10:45:40.840Z,99460.34
2023-02-12T10:49:43.510Z,99454.03
2023-02-12T10:53:48.437Z,99449.38
2023-02-12T10:57:51.300Z,99441.50
2023-02-12T11:01:55.270Z,99448.22
2023-02-12T11:05:58.167Z,99450.97
2023-02-12T11:10:01.014Z,99449.50
2023-02-12T11:14:07.048Z,99441.47
2023-02-12T11:18:23.023Z,99429.84
2023-02-12T11:22:25.680Z,99429.91
2023-02-12T11:26:30.025Z,99428.56
2023-02-12T11:30:33.520Z,99415.81
2023-02-12T11:34:37.649Z,99416.69
2023-02-12T11:38:48.852Z,99430.25
2023-02-12T11:42:53.619Z,99421.63
2023-02-12T11:46:58.269Z,99430.41
2023-02-12T11:51:05.120Z,99426.00
2023-02-12T11:55:19.255Z,99435.50
2023-02-12T11:59:37.482Z,99429.28
2023-02-12T12:03:46.686Z,99432.41
2023-02-12T12:07:56.635Z,99428.31
2023-02-12T12:12:05.796Z,99432.97
2023-02-12T12:16:31.771Z,99421.88
2023-02-12T12:20:42.311Z,99416.50
2023-02-12T12:24:54.028Z,99414.63
2023-02-12T12:29:06.158Z,99419.19
2023-02-12T12:33:17.252Z,99416.06
2023-02-12T12:37:30.140Z,99412.38
2023-02-12T12:41:48.379Z,99404.09
2023-02-12T12:46:10.543Z,99412.09
2023-02-12T12:50:35.557Z,99414.59
2023-02-12T12:54:46.294Z,99398.13
2023-02-12T12:59:10.788Z,99401.19
2023-02-12T13:03:37.672Z,99405.09
2023-02-12T13:07:53.981Z,99410.19
2023-02-12T13:12:13.378Z,99403.75
2023-02-12T13:16:23.258Z,99403.59
2023-02-12T13:20:35.492Z,99404.47
2023-02-12T13:24:46.411Z,99397.56
2023-02-12T13:28:53.660Z,99393.31
2023-02-12T13:33:06.608Z,99391.56
2023-02-12T13:37:17.226Z,99388.47
2023-02-12T13:41:21.657Z,99384.72
2023-02-12T13:45:37.238Z,99388.34
2023-02-12T13:49:49.571Z,99386.19
2023-02-12T13:54:03.585Z,99382.91
2023-02-12T13:58:40.171Z,99382.06
2023-02-12T14:02:45.964Z,99380.13
2023-02-12T14:07:01.395Z,99382.41
2023-02-12T14:11:08.239Z,99377.56
2023-02-12T14:15:22.140Z,99387.00
2023-02-12T14:19:55.029Z,99371.28
2023-02-12T14:24:52.108Z,99376.03
2023-02-12T14:28:58.243Z,99375.41
2023-02-12T14:33:25.198Z,99382.28
2023-02-12T14:37:39.881Z,99375.84
2023-02-12T14:41:43.846Z,99372.50
2023-02-12T14:45:46.470Z,99366.72
2023-02-12T14:49:51.653Z,99367.53
2023-02-12T14:53:57.183Z,99367.75
2023-02-12T14:58:05.921Z,99375.03
2023-02-12T15:02:14.945Z,99362.34
2023-02-12T15:06:19.546Z,99368.56
2023-02-12T15:10:25.641Z,99355.59
2023-02-12T15:14:31.906Z,99356.16
2023-02-12T15:18:48.887Z,99352.84
2023-02-12T15:22:51.714Z,99348.44
2023-02-12T15:26:56.997Z,99356.91
2023-02-12T15:31:02.193Z,99350.34
2023-02-12T15:35:05.390Z,99351.34
2023-02-12T15:39:10.131Z,99357.09
2023-02-12T15:43:19.268Z,99354.72
2023-02-12T15:47:26.174Z,99356.66
2023-02-12T15:51:34.806Z,99351.63
2023-02-12T15:55:41.088Z,99350.00
2023-02-12T15:59:43.818Z,99349.28
2023-02-12T16:03:50.995Z,99349.47
2023-02-12T16:07:54.209Z,99351.63
2023-02-12T16:11:59.204Z,99356.31
2023-02-12T16:16:08.533Z,99349.16
2023-02-12T16:20:24.805Z,99351.22
2023-02-12T16:24:33.222Z,99356.22
2023-02-12T16:28:35.930Z,99358.81
2023-02-12T16:32:40.636Z,99365.59
2023-02-12T16:36:48.225Z,99364.53
2023-02-12T16:41:16.824Z,99364.16
2023-02-12T16:45:44.077Z,99373.41
2023-02-12T16:49:55.238Z,99372.47
2023-02-12T16:54:00.622Z,99377.63
2023-02-12T16:58:03.560Z,99384.59
2023-02-12T17:02:12.630Z,99391.44
2023-02-12T17:06:15.602Z,99374.03
2023-02-12T17:10:20.000Z,99382.84
2023-02-12T17:14:22.636Z,99385.84
2023-02-12T17:18:26.056Z,99388.63
2023-02-12T17:22:28.718Z,99414.88
2023-02-12T17:26:32.739Z,99402.16
2023-02-12T17:30:37.321Z,99407.41
2023-02-12T17:34:48.693Z,99401.41
2023-02-12T17:38:52.177Z,99418.19
2023-02-12T17:42:56.185Z,99411.31
2023-02-12T17:46:58.992Z,99412.47
2023-02-12T17:51:01.778Z,99410.41
2023-02-12T17:55:05.488Z,99409.59
2023-02-12T17:59:09.388Z,99418.22
2023-02-12T18:03:12.379Z,99410.41
2023-02-12T18:07:15.087Z,99411.91
2023-02-12T18:11:18.968Z,99404.72
2023-02-12T18:15:22.936Z,99409.09
2023-02-12T18:19:26.213Z,99401.56
2023-02-12T18:23:28.763Z,99417.13
2023-02-12T18:27:31.390Z,99414.66
2023-02-12T18:31:35.983Z,99412.50
2023-02-12T18:35:41.623Z,99410.19
2023-02-12T18:39:44.255Z,99423.13
2023-02-12T18:43:47.221Z,99416.72
2023-02-12T18:47:51.125Z,99416.50
2023-02-12T18:51:53.866Z,99413.69
2023-02-12T18:55:56.532Z,99409.44
2023-02-12T18:59:59.133Z,99411.75
2023-02-12T19:04:05.150Z,99411.97
2023-02-12T19:08:07.942Z,99401.00
2023-02-12T19:12:10.847Z,99406.59
2023-02-12T19:16:17.352Z,99407.31
2023-02-12T19:20:21.619Z,99395.00
2023-02-12T19:24:24.248Z,99411.97
2023-02-12T19:28:26.881Z,99405.34
2023-02-12T19:32:29.693Z,99412.50
2023-02-12T19:36:35.474Z,99413.72
2023-02-12T19:40:38.068Z,99410.09
2023-02-12T19:44:40.757Z,99426.59
2023-02-12T19:48:44.173Z,99429.69
2023-02-12T19:52:48.458Z,99430.34
2023-02-12T19:56:52.826Z,99425.88
2023-02-12T20:00:55.670Z,99437.19
2023-02-12T20:04:58.710Z,99425.22
2023-02-12T20:09:02.912Z,99432.47
2023-02-12T20:13:05.601Z,99438.69
2023-02-12T20:17:08.406Z,99432.50
2023-02-12T20:21:14.060Z,99430.34
2023-02-12T20:25:18.246Z,99447.09
2023-02-12T20:29:21.527Z,99450.38
2023-02-12T20:33:24.324Z,99441.22
2023-02-12T20:37:27.025Z,99445.56
2023-02-12T20:41:31.022Z,99457.28
2023-02-12T20:45:35.680Z,99450.13
2023-02-12T20:49:38.492Z,99450.56
2023-02-12T20:53:42.173Z,99453.72
2023-02-12T20:57:46.191Z,99455.31
2023-02-12T21:01:48.909Z,99446.91
2023-02-12T21:05:51.580Z,99451.47
2023-02-12T21:09:54.399Z,99446.91
2023-02-12T21:14:20.874Z,99441.59
2023-02-12T21:18:25.561Z,99451.06
2023-02-12T21:22:28.281Z,99445.00
2023-02-12T21:26:33.132Z,99445.09
2023-02-12T21:30:37.102Z,99444.78
2023-02-12T21:34:39.865Z,99447.25
2023-02-12T21:38:44.295Z,99455.66
2023-02-12T21:42:46.904Z,99443.88
2023-02-12T21:46:51.157Z,99449.19
2023-02-12T21:50:53.825Z,99441.22
2023-02-12T21:54:57.253Z,99439.63
2023-02-12T21:59:00.523Z,99438.13
2023-02-12T22:03:04.639Z,99445.25
2023-02-12T22:07:08.196Z,99438.38
2023-02-12T22:11:12.758Z,99451.91
2023-02-12T22:15:15.644Z,99441.53
2023-02-12T22:19:19.790Z,99432.00
2023-02-12T22:23:22.434Z,99437.97
2023-02-12T22:27:25.165Z,99427.97
2023-02-12T22:31:31.198Z,99435.16
2023-02-12T22:35:35.318Z,99429.72
2023-02-12T22:39:37.902Z,99440.28
2023-02-12T22:43:41.581Z,99436.88
2023-02-12T22:47:44.179Z,99434.53
2023-02-12T22:51:48.142Z,99445.03
2023-02-12T22:55:50.908Z,99444.41
2023-02-12T22:59:53.540Z,99445.66
2023-02-12T23:03:56.201Z,99444.91
2023-02-12T23:08:00.225Z,99433.88
2023-02-12T23:12:07.478Z,99434.66
2023-02-12T23:16:10.119Z,99435.41
2023-02-12T23:20:13.964Z,99436.53
2023-02-12T23:24:17.917Z,99440.34
2023-02-12T23:28:20.488Z,99443.31
2023-02-12T23:32:23.276Z,99449.59
2023-02-12T23:36:26.008Z,99436.41
2023-02-12T23:40:30.022Z,99443.97
2023-02-12T23:44:32.832Z,99425.38
2023-02-12T23:48:35.523Z,99430.69
2023-02-12T23:52:38.092Z,99431.53
2023-02-12T23:56:42.189Z,99426.22
